createdAt,value
2018-11-28T01:42:22.266Z,79.72
2018-11-28T01:45:26.845Z,80.11
2018-11-28T01:48:31.355Z,80.21
2018-11-28T01:51:35.842Z,78.94
2018-11-28T01:54:40.408Z,78.25
2018-11-28T01:57:45.007Z,79.37
2018-11-28T02:00:49.542Z,78.63
2018-11-28T02:03:54.114Z,78.27
2018-11-28T02:06:58.646Z,78.35
2018-11-28T02:10:03.256Z,78.42
2018-11-28T02:13:07.863Z,78.36
2018-11-28T02:16:12.558Z,78.68
2018-11-28T02:19:17.091Z,78.16
2018-11-28T02:22:21.640Z,78.49
2018-11-28T02:25:26.240Z,78.91
2018-11-28T02:28:30.777Z,78.38
2018-11-28T02:31:35.290Z,77.72
2018-11-28T02:34:40.000Z,77.17
2018-11-28T02:37:44.614Z,77.07
2018-11-28T02:40:49.186Z,77.35
2018-11-28T02:43:53.700Z,77.99
2018-11-28T02:46:58.502Z,77.87
2018-11-28T02:50:03.182Z,78.32
2018-11-28T02:53:07.741Z,77.94
2018-11-28T02:56:12.253Z,78.48
2018-11-28T02:59:16.825Z,77.86
2018-11-28T03:02:21.353Z,78.11
2018-11-28T03:05:25.903Z,78.86
2018-11-28T03:08:30.549Z,78.60
2018-11-28T03:11:35.199Z,78.90
2018-11-28T03:14:39.774Z,78.27
2018-11-28T03:17:44.284Z,79.24
2018-11-28T03:20:48.921Z,79.21
2018-11-28T03:23:53.618Z,78.49
2018-11-28T03:26:58.160Z,79.17
2018-11-28T03:30:02.766Z,79.63
2018-11-28T03:33:07.481Z,79.08
2018-11-28T03:36:12.259Z,79.75
2018-11-28T03:39:16.879Z,79.17
2018-11-28T03:42:21.415Z,78.98
2018-11-28T03:45:26.003Z,78.93
2018-11-28T03:48:30.615Z,79.77
2018-11-28T03:51:35.140Z,79.25
2018-11-28T03:54:39.762Z,79.01
2018-11-28T03:57:46.171Z,79.14
2018-11-28T04:00:50.907Z,78.78
2018-11-28T04:03:55.521Z,78.89
2018-11-28T04:07:00.081Z,77.74
2018-11-28T04:10:08.073Z,78.26
2018-11-28T04:13:12.634Z,78.18
2018-11-28T04:16:17.186Z,78.32
2018-11-28T04:19:21.841Z,78.63
2018-11-28T04:22:26.426Z,79.09
2018-11-28T04:25:31.007Z,78.61
2018-11-28T04:28:35.627Z,78.64
2018-11-28T04:31:40.351Z,78.14
2018-11-28T04:34:44.946Z,78.86
2018-11-28T04:37:49.474Z,78.70
2018-11-28T04:40:54.068Z,78.65
2018-11-28T04:43:58.680Z,78.66
2018-11-28T04:47:03.220Z,78.60
2018-11-28T04:50:09.923Z,78.45
2018-11-28T04:53:14.386Z,77.19
2018-11-28T04:56:19.095Z,78.23
2018-11-28T04:59:23.741Z,78.00
2018-11-28T05:02:28.502Z,78.24
2018-11-28T05:05:33.019Z,77.71
2018-11-28T05:08:37.644Z,78.39
2018-11-28T05:11:42.346Z,78.79
2018-11-28T05:14:47.007Z,78.83
2018-11-28T05:17:57.418Z,78.67
2018-11-28T05:21:02.149Z,79.17
2018-11-28T05:24:06.808Z,79.73
2018-11-28T05:27:11.461Z,80.50
2018-11-28T05:30:19.330Z,80.44
2018-11-28T05:33:24.070Z,81.17
2018-11-28T05:36:28.614Z,81.42
2018-11-28T05:39:33.246Z,81.42
2018-11-28T05:42:37.924Z,82.03
2018-11-28T05:45:42.451Z,82.17
2018-11-28T05:48:47.021Z,82.90
2018-11-28T05:51:51.644Z,82.70
2018-11-28T05:54:56.404Z,82.91
2018-11-28T05:58:01.054Z,82.87
2018-11-28T06:01:05.640Z,82.99
2018-11-28T06:04:10.287Z,84.08
2018-11-28T06:07:21.640Z,84.81
2018-11-28T06:10:26.239Z,84.50
2018-11-28T06:13:30.905Z,84.49
2018-11-28T06:16:35.969Z,84.89
2018-11-28T06:19:40.608Z,85.57
2018-11-28T06:22:45.311Z,85.36
2018-11-28T06:25:50.004Z,85.52
2018-11-28T06:28:54.669Z,85.59
2018-11-28T06:31:59.241Z,84.64
2018-11-28T06:35:03.757Z,83.77
2018-11-28T06:38:08.367Z,84.13
2018-11-28T06:41:12.885Z,83.94
2018-11-28T06:44:17.641Z,83.54
2018-11-28T06:47:22.214Z,83.24
2018-11-28T06:50:26.884Z,83.66
2018-11-28T06:53:31.432Z,84.28
2018-11-28T06:56:36.012Z,84.68
2018-11-28T06:59:40.795Z,84.93
2018-11-28T07:02:45.562Z,84.82
2018-11-28T07:05:50.250Z,84.45
2018-11-28T07:08:54.979Z,84.85
2018-11-28T07:11:59.525Z,84.27
2018-11-28T07:15:04.322Z,83.56
2018-11-28T07:18:25.687Z,82.96
2018-11-28T07:21:30.415Z,83.19
2018-11-28T07:24:34.942Z,82.86
2018-11-28T07:27:44.823Z,82.95
2018-11-28T07:30:44.194Z,82.10
2018-11-28T07:33:48.861Z,81.97
2018-11-28T07:36:53.900Z,81.98
2018-11-28T07:39:58.529Z,81.53
2018-11-28T07:43:13.870Z,81.80
2018-11-28T07:46:18.436Z,80.79
2018-11-28T07:49:23.166Z,80.95
2018-11-28T07:52:27.767Z,80.02
2018-11-28T07:55:32.368Z,79.46
2018-11-28T07:58:36.919Z,79.58
2018-11-28T08:01:41.572Z,79.25
2018-11-28T08:04:46.123Z,79.05
2018-11-28T08:07:50.729Z,78.77
2018-11-28T08:10:55.322Z,78.12
2018-11-28T08:13:59.991Z,78.08
2018-11-28T08:17:04.699Z,78.64
2018-11-28T08:20:09.407Z,78.12
2018-11-28T08:23:13.982Z,78.37
2018-11-28T08:26:18.525Z,78.56
2018-11-28T08:29:23.100Z,79.08
2018-11-28T08:32:27.678Z,78.47
2018-11-28T08:35:32.211Z,79.11
2018-11-28T08:38:36.732Z,78.27
2018-11-28T08:41:41.362Z,79.25
2018-11-28T08:44:46.098Z,78.93
2018-11-28T08:47:52.530Z,79.16
2018-11-28T08:50:57.236Z,79.84
2018-11-28T08:54:01.796Z,78.53
2018-11-28T08:57:06.541Z,79.50
2018-11-28T09:00:16.903Z,79.91
2018-11-28T09:03:21.429Z,80.34
2018-11-28T09:06:26.008Z,80.17
2018-11-28T09:09:30.684Z,80.69
2018-11-28T09:12:35.333Z,80.41
2018-11-28T09:15:40.578Z,79.79
2018-11-28T09:18:47.793Z,79.99
2018-11-28T09:21:52.364Z,80.91
2018-11-28T09:24:56.905Z,80.68
2018-11-28T09:28:01.664Z,81.00
2018-11-28T09:31:06.249Z,80.76
2018-11-28T09:34:10.905Z,80.56
2018-11-28T09:37:15.466Z,80.02
2018-11-28T09:40:25.667Z,79.67
2018-11-28T09:43:30.298Z,80.36
2018-11-28T09:46:34.969Z,80.45
2018-11-28T09:49:39.487Z,80.36
2018-11-28T09:52:44.111Z,79.61
2018-11-28T09:55:48.582Z,79.38
2018-11-28T09:58:53.133Z,78.61
2018-11-28T10:01:57.777Z,77.67
2018-11-28T10:05:03.015Z,78.71
2018-11-28T10:08:07.029Z,79.16
2018-11-28T10:11:12.129Z,80.34
2018-11-28T10:14:16.661Z,80.28
2018-11-28T10:17:21.299Z,80.58
2018-11-28T10:20:25.793Z,79.98
2018-11-28T10:23:30.328Z,79.96
2018-11-28T10:26:34.899Z,79.24
2018-11-28T10:29:39.421Z,79.21
2018-11-28T10:32:44.033Z,78.58
2018-11-28T10:35:48.629Z,79.09
2018-11-28T10:38:53.194Z,78.43
2018-11-28T10:41:57.822Z,78.20
2018-11-28T10:45:02.349Z,77.76
2018-11-28T10:48:08.806Z,78.30
2018-11-28T10:51:13.387Z,77.35
2018-11-28T10:54:17.955Z,77.57
2018-11-28T10:57:22.467Z,77.14
2018-11-28T11:00:34.937Z,76.66
2018-11-28T11:03:44.890Z,76.36
2018-11-28T11:06:54.756Z,76.08
2018-11-28T11:10:04.676Z,76.60
2018-11-28T11:13:14.440Z,76.14
2018-11-28T11:16:24.288Z,75.49
2018-11-28T11:19:28.887Z,76.07
2018-11-28T11:22:33.857Z,76.23
2018-11-28T11:25:38.784Z,75.54
2018-11-28T11:28:43.471Z,75.37
2018-11-28T11:31:48.070Z,75.06
2018-11-28T11:34:52.701Z,75.36
2018-11-28T11:37:57.316Z,75.70
2018-11-28T11:41:01.813Z,75.15
2018-11-28T11:44:06.496Z,75.36
2018-11-28T11:47:11.128Z,75.66
2018-11-28T11:50:18.191Z,75.13
2018-11-28T11:53:22.850Z,75.07
2018-11-28T11:56:27.436Z,75.14
2018-11-28T11:59:32.029Z,74.53
2018-11-28T12:02:36.553Z,74.26
2018-11-28T12:05:46.518Z,73.58
2018-11-28T12:08:51.006Z,73.14
2018-11-28T12:11:55.529Z,73.32
2018-11-28T12:15:00.265Z,74.11
2018-11-28T12:18:05.008Z,74.53
2018-11-28T12:21:09.576Z,74.90
2018-11-28T12:24:14.205Z,75.28
2018-11-28T12:27:18.774Z,74.61
2018-11-28T12:30:23.510Z,74.32
2018-11-28T12:33:28.195Z,75.14
2018-11-28T12:36:32.746Z,74.27
2018-11-28T12:39:38.206Z,74.29
2018-11-28T12:42:45.534Z,74.02
2018-11-28T12:45:51.461Z,73.87
2018-11-28T12:48:56.110Z,73.55
2018-11-28T12:52:00.723Z,74.22
2018-11-28T12:55:05.519Z,74.51
2018-11-28T12:58:16.038Z,73.67
2018-11-28T13:01:20.568Z,73.58
2018-11-28T13:04:25.389Z,74.39
2018-11-28T13:07:30.054Z,74.49
2018-11-28T13:10:36.786Z,75.30
2018-11-28T13:13:41.357Z,74.73
2018-11-28T13:16:46.009Z,74.36
2018-11-28T13:19:50.678Z,74.52
2018-11-28T13:22:56.539Z,74.41
2018-11-28T13:26:01.101Z,74.22
2018-11-28T13:29:06.472Z,73.95
2018-11-28T13:32:11.286Z,74.38
2018-11-28T13:35:22.305Z,74.55
2018-11-28T13:38:26.943Z,74.89
2018-11-28T13:41:31.528Z,74.62
2018-11-28T13:44:36.197Z,74.09
2018-11-28T13:47:41.319Z,74.91
2018-11-28T13:50:46.537Z,75.40
2018-11-28T13:53:51.216Z,74.89
2018-11-28T13:56:58.720Z,75.16
2018-11-28T14:00:02.479Z,74.91
2018-11-28T14:03:07.326Z,75.25
2018-11-28T14:06:12.061Z,75.57
2018-11-28T14:09:17.618Z,75.88
2018-11-28T14:12:22.518Z,76.08
2018-11-28T14:15:27.287Z,75.86
2018-11-28T14:18:32.052Z,76.96
2018-11-28T14:21:36.829Z,77.40
2018-11-28T14:24:41.470Z,77.23
2018-11-28T14:27:46.326Z,76.85
2018-11-28T14:30:51.250Z,76.83
2018-11-28T14:33:56.039Z,76.97
2018-11-28T14:37:00.637Z,76.76
2018-11-28T14:40:08.913Z,77.30
2018-11-28T14:43:13.880Z,77.07
2018-11-28T14:46:18.510Z,77.50
2018-11-28T14:49:23.232Z,76.86
2018-11-28T14:52:27.822Z,77.32
2018-11-28T14:55:36.926Z,77.17
2018-11-28T14:58:41.748Z,76.76
2018-11-28T15:01:46.290Z,77.15
2018-11-28T15:04:51.328Z,77.53
2018-11-28T15:08:10.683Z,77.95
2018-11-28T15:11:16.030Z,77.28
2018-11-28T15:14:20.553Z,77.51
2018-11-28T15:17:25.391Z,78.04
2018-11-28T15:20:30.007Z,78.30
2018-11-28T15:23:34.630Z,78.72
2018-11-28T15:26:39.345Z,78.30
2018-11-28T15:29:44.100Z,78.41
2018-11-28T15:32:48.776Z,78.36
2018-11-28T15:35:53.553Z,78.43
2018-11-28T15:38:58.129Z,78.61
2018-11-28T15:42:02.768Z,78.80
2018-11-28T15:45:09.331Z,78.70
2018-11-28T15:48:14.343Z,79.21
2018-11-28T15:51:18.848Z,79.73
2018-11-28T15:54:23.418Z,79.22
2018-11-28T15:57:28.031Z,79.62
2018-11-28T16:00:32.797Z,79.75
2018-11-28T16:03:37.418Z,79.98
2018-11-28T16:06:41.998Z,80.52
2018-11-28T16:09:51.712Z,80.57
2018-11-28T16:12:56.689Z,80.96
2018-11-28T16:16:01.491Z,80.96
2018-11-28T16:19:06.571Z,80.77
2018-11-28T16:22:11.441Z,81.14
2018-11-28T16:25:16.291Z,80.90
2018-11-28T16:28:21.108Z,81.72
2018-11-28T16:31:25.956Z,82.23
2018-11-28T16:34:30.658Z,82.90
2018-11-28T16:37:35.304Z,82.34
2018-11-28T16:40:40.253Z,82.40
2018-11-28T16:43:44.853Z,82.59
2018-11-28T16:46:49.381Z,82.19
2018-11-28T16:49:53.965Z,82.19
2018-11-28T16:52:58.635Z,83.81
2018-11-28T16:56:03.352Z,83.60
2018-11-28T16:59:08.777Z,83.63
2018-11-28T17:02:13.505Z,84.17
2018-11-28T17:05:20.860Z,84.16
2018-11-28T17:08:25.415Z,83.98
2018-11-28T17:11:30.183Z,83.37
2018-11-28T17:14:36.405Z,83.03
2018-11-28T17:17:47.673Z,82.82
2018-11-28T17:20:52.230Z,84.21
2018-11-28T17:23:56.972Z,84.50
2018-11-28T17:27:01.816Z,83.92
2018-11-28T17:30:10.939Z,83.82
2018-11-28T17:33:15.552Z,82.77
2018-11-28T17:36:20.135Z,82.36
2018-11-28T17:39:24.708Z,82.01
2018-11-28T17:42:29.315Z,81.51
2018-11-28T17:45:34.091Z,82.17
2018-11-28T17:48:39.259Z,82.03
2018-11-28T17:51:43.818Z,81.82
2018-11-28T17:54:48.480Z,81.93
2018-11-28T17:57:53.064Z,82.14
2018-11-28T18:00:57.850Z,82.49
2018-11-28T18:04:02.382Z,82.88
2018-11-28T18:07:07.558Z,82.16
2018-11-28T18:10:17.272Z,82.04
2018-11-28T18:13:21.838Z,83.20
2018-11-28T18:16:29.500Z,83.41
2018-11-28T18:19:31.367Z,82.74
2018-11-28T18:22:35.878Z,81.82
2018-11-28T18:25:41.599Z,81.77
2018-11-28T18:28:46.153Z,81.97
2018-11-28T18:31:50.772Z,81.32
2018-11-28T18:34:55.290Z,81.55
2018-11-28T18:37:59.958Z,80.80
2018-11-28T18:41:08.032Z,81.36
2018-11-28T18:44:12.722Z,80.21
2018-11-28T18:47:17.294Z,80.20
2018-11-28T18:50:22.015Z,80.83
2018-11-28T18:53:26.598Z,80.93
2018-11-28T18:56:31.216Z,80.65
2018-11-28T18:59:35.753Z,80.76
2018-11-28T19:02:40.897Z,80.16
2018-11-28T19:05:45.442Z,79.97
2018-11-28T19:08:50.159Z,80.17
2018-11-28T19:11:54.807Z,80.01
2018-11-28T19:14:59.442Z,80.31
2018-11-28T19:18:04.130Z,80.19
2018-11-28T19:21:08.900Z,80.24
2018-11-28T19:24:13.511Z,80.15
2018-11-28T19:27:18.107Z,80.28
2018-11-28T19:30:36.018Z,80.19
2018-11-28T19:33:40.772Z,80.50
2018-11-28T19:36:45.426Z,80.60
2018-11-28T19:39:50.068Z,80.57
2018-11-28T19:42:54.802Z,80.91
2018-11-28T19:45:59.744Z,80.71
2018-11-28T19:49:04.377Z,80.36
2018-11-28T19:52:09.141Z,80.54
2018-11-28T19:55:13.895Z,80.56
2018-11-28T19:58:18.682Z,79.76
2018-11-28T20:01:23.385Z,80.12
2018-11-28T20:04:28.061Z,80.50
2018-11-28T20:07:32.774Z,80.23
2018-11-28T20:10:37.584Z,80.39
2018-11-28T20:13:43.711Z,80.33
2018-11-28T20:16:53.380Z,80.77
2018-11-28T20:19:59.270Z,79.90
2018-11-28T20:23:04.064Z,79.78
2018-11-28T20:26:08.819Z,80.21
2018-11-28T20:29:14.446Z,79.87
2018-11-28T20:32:19.133Z,79.41
2018-11-28T20:35:23.939Z,79.94
2018-11-28T20:38:33.068Z,79.96
2018-11-28T20:41:37.889Z,80.10
2018-11-28T20:44:42.609Z,79.99
2018-11-28T20:47:47.384Z,79.95
2018-11-28T20:50:53.001Z,80.67
2018-11-28T20:53:57.619Z,80.41
2018-11-28T20:57:02.231Z,80.53
2018-11-28T21:00:11.742Z,79.80
2018-11-28T21:03:16.366Z,80.83
2018-11-28T21:06:21.076Z,80.47
2018-11-28T21:09:25.965Z,81.37
2018-11-28T21:12:30.524Z,80.74
2018-11-28T21:15:35.059Z,81.76
2018-11-28T21:18:39.816Z,82.35
2018-11-28T21:21:44.515Z,82.93
2018-11-28T21:24:49.089Z,83.54
2018-11-28T21:27:53.750Z,84.45
2018-11-28T21:30:58.486Z,82.88
2018-11-28T21:34:03.152Z,84.27
2018-11-28T21:37:07.745Z,84.37
2018-11-28T21:40:13.050Z,84.92
2018-11-28T21:43:17.612Z,84.98
2018-11-28T21:46:22.246Z,84.38
2018-11-28T21:49:28.376Z,84.95
2018-11-28T21:52:33.076Z,85.29
2018-11-28T21:55:37.685Z,84.09
2018-11-28T21:58:42.276Z,85.12
2018-11-28T22:01:46.903Z,84.95
2018-11-28T22:04:51.552Z,85.56
2018-11-28T22:07:56.145Z,86.86
2018-11-28T22:11:00.695Z,84.17
2018-11-28T22:14:06.213Z,84.68
2018-11-28T22:17:10.660Z,84.45
2018-11-28T22:20:15.955Z,84.58
2018-11-28T22:23:20.461Z,85.49
2018-11-28T22:26:24.999Z,85.82
2018-11-28T22:29:29.717Z,87.24
2018-11-28T22:32:34.442Z,85.20
2018-11-28T22:35:39.175Z,85.55
2018-11-28T22:38:43.928Z,85.89
2018-11-28T22:41:48.610Z,86.05
2018-11-28T22:44:53.178Z,86.53
2018-11-28T22:47:57.694Z,86.41
2018-11-28T22:51:02.238Z,86.38
2018-11-28T22:54:06.861Z,86.35
2018-11-28T22:57:11.448Z,86.79
2018-11-28T23:00:29.140Z,85.70
2018-11-28T23:03:33.703Z,85.84
2018-11-28T23:06:38.305Z,85.53
2018-11-28T23:09:42.906Z,86.08
2018-11-28T23:12:47.502Z,86.58
2018-11-28T23:15:52.022Z,86.12
2018-11-28T23:18:57.431Z,85.46
2018-11-28T23:22:01.997Z,85.21
2018-11-28T23:25:10.724Z,85.62
2018-11-28T23:28:15.457Z,85.99
2018-11-28T23:31:19.972Z,86.56
2018-11-28T23:34:24.589Z,85.82
2018-11-28T23:37:29.198Z,85.56
2018-11-28T23:40:33.844Z,86.23
2018-11-28T23:43:38.539Z,85.35
2018-11-28T23:46:43.231Z,85.90
2018-11-28T23:49:47.803Z,86.12
2018-11-28T23:52:53.863Z,85.90
2018-11-28T23:55:58.444Z,86.11
2018-11-28T23:59:03.106Z,86.15
